KAIZ

Details ICAO KAIZ (AIZ)
Name LEE C FINE MEM
Region United States
Timezone America/Chicago (UTC-6.0)
Plans Departing 1
Arriving 2
Stats Elevation 869 ft / 265 m (AMSL)
Location 38.096033° -92.549476°
Runways 1
Magnetic Variation 0.252° E
Sunrise 2017-12-12 13:18:47 UTC / 2017-12-12 07:18:47 Local
Sunset 2017-12-12 22:52:10 UTC / 2017-12-12 16:52:10 Local
Advertisement - Login to hide

Runways

ID Width Length Bearing (true) Bearing (mag) Surface Threshold Offset Overrun Length
03 100 ft / 30 m 6,500 ft / 1,981 m 36.96° 36.71° Asphalt 0 ft / 0 m 0 ft / 0 m
21 100 ft / 30 m 6,500 ft / 1,981 m 216.96° 216.71° Asphalt 0 ft / 0 m 0 ft / 0 m

Approach Navaids

Runway Type Ident Frequency Range Bearing (true) Bearing (mag) Slope Elevation
21 Localiser AIZ 111.50 MHz 18 nm / 33 km 217.15° 216.90° - 869 ft / 265 m (AMSL)

Map

Weather


0- 5 10 15 20 25 30 35+ Temperature / ° C

Clouds and Precipitation
Forecast for 2017-12-12 06:00 UTC. Updated an hour ago

Ground ~20,000 ft ~40,000 ft Winds

METAR

KAIZ 120556Z AUTO 34007G20KT 300V360 10SM OVC032 04/M02 A3017 RMK AO2 SLP216 T00391022 10106 20039 401391033 53035

TAF

Not found

Frequencies

Recorded 135.32 MHz AWOS 3
Approach 124.10 MHz MIZZU APP/DEP
Unicom 122.80 MHz CTAF/UNICOM
Warning: Do not use this data for real-world aviation or navigation. No guarantee of current accuracy is given.